Meteo Giornale » Osservazioni meteo Stati Uniti (USA) » Poplar Bluff
ore: 18:53 - Osservazioni Meteo Poplar Bluff
Lat. 36° 46' N Lon. 90° 19' W Alt. 100 metri s.l.m.
32 °C
Sereno
Temp. 24 Ore
20 °C
36 °C
Nord
0 Km/h
Dew point 22 °C
Umidità 55 %
Visibilità 10 Km
Il sole sorge alle ore 06:31
Il sole tramonta alle ore 19:31
| Data e Ora | Cielo e Fenomeni | T °C | DP °C | Um. % | Pres. hPa | Vis. km | Vento km/h | |
|---|---|---|---|---|---|---|---|---|
| Oggi h: 18:53 | Sereno | 32 | 22 | 55 | 1015 | 10 | N 0 | |
| Oggi h: 17:53 | Sereno | 34 | 21 | 46 | 1015 | 10 | S/SE 14.8 | |
| Oggi h: 16:53 | Sereno | 36 | 21 | 41 | 1016 | 10 | S/SE 14.8 | |
| Oggi h: 15:53 | Sereno | 36 | 19 | 36 | 1016 | 10 | S/SO 11.1 | |
| Oggi h: 14:53 | Sereno | 36 | 19 | 36 | 1017 | 10 | S 14.8 | |
| Oggi h: 13:53 | Sereno | 35 | 19 | 39 | 1017 | 10 | S/SO 20.3 | |
| Oggi h: 12:53 | Sereno | 35 | 21 | 44 | 1018 | 10 | S/SE 16.7 | |
| Oggi h: 11:53 | Sereno | 33 | 22 | 52 | 1018 | 10 | S/SO 14.8 | |
| Oggi h: 10:53 | Sereno | 31 | 22 | 58 | 1019 | 10 | SO 13 | |
| Oggi h: 09:53 | Sereno | 29 | 22 | 66 | 1019 | 10 | N 0 | |
| Oggi h: 08:53 | Sereno | 27 | 22 | 74 | 1018 | 10 | N 0 | |
| Oggi h: 07:53 | Sereno | 23 | 20 | 83 | 1018 | 10 | N 0 | |
| Oggi h: 06:53 | Sereno | 20 | 19 | 93 | 1018 | 10 | N 0 | |
| Oggi h: 05:53 | Sereno | 20 | 19 | 93 | 1017 | 10 | N 0 | |
| Oggi h: 04:53 | Sereno | 20 | 19 | 93 | 1017 | 10 | N 5.5 | |
| Oggi h: 03:53 | Sereno | 20 | 19 | 93 | 1016 | 10 | N 0 | |
| Oggi h: 02:53 | Sereno | 21 | 19 | 88 | 1016 | 10 | N 0 | |
| Oggi h: 01:53 | Sereno | 21 | 19 | 88 | 1016 | 10 | N 5.5 | |
| Oggi h: 00:53 | Sereno | 21 | 19 | 88 | 1016 | 10 | N 0 | |
| Ieri h: 23:53 | Sereno | 21 | 19 | 88 | 1016 | 10 | N 0 | |
| Ieri h: 22:53 | Sereno | 22 | 19 | 83 | 1016 | 10 | N 0 | |
| Ieri h: 21:53 | Sereno | 23 | 20 | 83 | 1016 | 10 | N 0 | |
| Ieri h: 20:53 | Sereno | 24 | 19 | 73 | 1016 | 10 | N 0 | |
| Ieri h: 19:53 | Sereno | 27 | 19 | 61 | 1015 | 10 | N 0 | |



